Kleberg, Texas
Current Conditions -  °F | °C
As of 7:47 AM on Saturday 22 Nov 2014 (Local Time) from KHQZ Reporting Station
Overcast Overcast  
Wind Chill: 59°   Ceiling: 1000
Heat Index: 59°   Visibility: 10mi
Dew Point: 55°   Wind: 9mph
Humidity: 88%   Direction: 130°SE
Pressure: 30.07"   Gusts: NA
Location:  32.6719°N, 96.62°W
Report Text: KHQZ 221347Z 13008KT 10SM OVC010 15/13 A3007
Loading
Personal Weather Stations






























Interactive Weather Map New forecast layout! Learn more

10-Day Weather Forecast

Advertisements
Track Severe Weather on mobile